Signal Hill, California
Current Conditions -  °F | °C
As of 10:53 PM on Sunday 23 Nov 2014 (Local Time) from KLGB Reporting Station
Clear Clear  
Wind Chill: 58°   Ceiling: Unl
Heat Index: 58°   Visibility: 10mi
Dew Point: 38°   Wind: 3mph
Humidity: 47%   Direction: 320°NW
Pressure: 30.15"   Gusts: NA
Location:  33.8°N, 118.16°W
Report Text: KLGB 240653Z 32003KT 10SM CLR 14/03 A3015 RMK AO2 SLP207 T01440033
Loading
Personal Weather Stations






























Interactive Weather Map New forecast layout! Learn more

10-Day Weather Forecast

Advertisements
Track Severe Weather on mobile